Lanai Airport Lanai City US
ICAO: PHNY
IATA:
Category: Medium
Scheduled Services:

Elevation: 1308 ft
TransAlt. 0 ft.

Airport Communications:
ASOS:118.375
HONOLULU CNTR:119.3
CTAF:122.9
RDO:117.7

PHNY Zoom In..

If Map Doesn't Load, Click Here

Runways:

(A) RW 03 length 5001 ft width 150 ft
ILS 111.10 / hdg 33

(B) RW 21 length 5001 ft width 150 ft
---- / hdg 213

Location; PHNY
Day. 21 / Time. 13.56 Zulu
* Altimeter: 29.97
* Temperature: 21° c. 69.8°f.
* Wind from: 070° Speed 03 kn.
Dewpoint: 21° c.
Visibility: 10 Statute Miles.
Clouds: Broken 1800 ft.

PHNY 211356Z AUTO 07003KT 10SM BKN018 21/21 A2997 RMK AO2 SLP126 T02110206


Wind From 070°
Speed 03 kn.

 
 
jpsmedia.com for Web Design worldairports.se 2018   terms of use